LEMD/MAD METAR and TAF weather

Enter ICAO airport designator
Station Type Date Time Source
LEMD METAR 2019/08/20 09:30 UTC NOAA

LEMD 200930Z 06009KT 9999 SCT035 SCT050 25/15 Q1019 NOSIG


Station Type Date Time Source
LEMD Decoded METAR 2019/08/20 09:30 UTC NOAA

Madrid / Barajas, Spain (LEMD) 40-27N 003-33W 582M
Aug 20, 2019 - 05:30 AM EDT / 2019.08.20 0930 UTC
Wind: from the ENE (060 degrees) at 10 MPH (9 KT):0
Visibility: greater than 7 mile(s):0
Sky conditions: partly cloudy
Temperature: 77 F (25 C)
Dew Point: 59 F (15 C)
Relative Humidity: 53%
Pressure (altimeter): 30.09 in. Hg (1019 hPa)
ob: LEMD 200930Z 06009KT 9999 SCT035 SCT050 25/15 Q1019 NOSIG
cycle: 9

Station Type Date Time Source
LEMD TAF 2019/08/20 06:28 UTC NOAA

TAF LEMD 200500Z 2006/2112 03012KT CAVOK TX32/2015Z TN19/2106Z PROB40
TEMPO 2009/2018 04015G25KT

Example: see airport list